sensor_id;sensor_type;location;lat;lon;timestamp;temperature;humidity
35603;DHT22;21725;50.836;4.368;2024-03-08T00:00:22;7.50;99.90
35603;DHT22;21725;50.836;4.368;2024-03-08T00:03:23;7.60;99.90
35603;DHT22;21725;50.836;4.368;2024-03-08T00:06:24;7.50;99.90
35603;DHT22;21725;50.836;4.368;2024-03-08T00:09:25;7.40;99.90
35603;DHT22;21725;50.836;4.368;2024-03-08T00:12:28;7.40;99.90
35603;DHT22;21725;50.836;4.368;2024-03-08T00:15:29;7.30;99.90
35603;DHT22;21725;50.836;4.368;2024-03-08T00:18:30;7.30;99.90
35603;DHT22;21725;50.836;4.368;2024-03-08T00:21:30;7.20;99.90
35603;DHT22;21725;50.836;4.368;2024-03-08T00:24:31;7.20;99.90
35603;DHT22;21725;50.836;4.368;2024-03-08T00:30:34;7.20;99.90
35603;DHT22;21725;50.836;4.368;2024-03-08T00:33:35;7.10;99.90
35603;DHT22;21725;50.836;4.368;2024-03-08T00:36:35;6.90;99.90
35603;DHT22;21725;50.836;4.368;2024-03-08T00:39:36;6.90;99.90
35603;DHT22;21725;50.836;4.368;2024-03-08T00:42:37;6.90;99.90
35603;DHT22;21725;50.836;4.368;2024-03-08T00:45:38;6.90;99.90
35603;DHT22;21725;50.836;4.368;2024-03-08T00:48:43;6.90;99.90
35603;DHT22;21725;50.836;4.368;2024-03-08T00:51:43;6.90;99.90
35603;DHT22;21725;50.836;4.368;2024-03-08T00:54:44;7.20;99.90
35603;DHT22;21725;50.836;4.368;2024-03-08T01:00:47;6.90;99.90
35603;DHT22;21725;50.836;4.368;2024-03-08T01:03:47;6.90;99.90
35603;DHT22;21725;50.836;4.368;2024-03-08T01:06:49;6.90;99.90
35603;DHT22;21725;50.836;4.368;2024-03-08T01:09:50;6.80;99.90
35603;DHT22;21725;50.836;4.368;2024-03-08T01:12:50;6.50;99.90
35603;DHT22;21725;50.836;4.368;2024-03-08T01:15:51;6.60;99.90
35603;DHT22;21725;50.836;4.368;2024-03-08T01:21:53;6.40;99.90
35603;DHT22;21725;50.836;4.368;2024-03-08T01:24:56;6.40;99.90
35603;DHT22;21725;50.836;4.368;2024-03-08T01:27:57;6.40;99.90
35603;DHT22;21725;50.836;4.368;2024-03-08T01:31:01;6.30;99.90
35603;DHT22;21725;50.836;4.368;2024-03-08T01:34:01;6.30;99.90
35603;DHT22;21725;50.836;4.368;2024-03-08T01:37:02;6.30;99.90
35603;DHT22;21725;50.836;4.368;2024-03-08T01:40:03;6.20;99.90
35603;DHT22;21725;50.836;4.368;2024-03-08T01:43:20;6.30;99.90
35603;DHT22;21725;50.836;4.368;2024-03-08T01:46:22;6.40;99.90
35603;DHT22;21725;50.836;4.368;2024-03-08T01:49:24;6.30;99.90
35603;DHT22;21725;50.836;4.368;2024-03-08T01:52:26;6.40;99.90
35603;DHT22;21725;50.836;4.368;2024-03-08T01:55:28;6.20;99.90
35603;DHT22;21725;50.836;4.368;2024-03-08T01:58:29;6.30;99.90
35603;DHT22;21725;50.836;4.368;2024-03-08T02:01:30;6.20;99.90
35603;DHT22;21725;50.836;4.368;2024-03-08T02:04:31;6.10;99.90
35603;DHT22;21725;50.836;4.368;2024-03-08T02:07:32;6.20;99.90
35603;DHT22;21725;50.836;4.368;2024-03-08T02:10:33;6.20;99.90
35603;DHT22;21725;50.836;4.368;2024-03-08T02:13:34;6.10;99.90
35603;DHT22;21725;50.836;4.368;2024-03-08T02:16:35;6.00;99.90
35603;DHT22;21725;50.836;4.368;2024-03-08T02:19:36;6.00;99.90
35603;DHT22;21725;50.836;4.368;2024-03-08T02:22:37;6.00;99.90
35603;DHT22;21725;50.836;4.368;2024-03-08T02:25:38;5.90;99.90
35603;DHT22;21725;50.836;4.368;2024-03-08T02:28:39;6.00;99.90
35603;DHT22;21725;50.836;4.368;2024-03-08T02:31:40;5.90;99.90
35603;DHT22;21725;50.836;4.368;2024-03-08T02:34:40;5.90;99.90
35603;DHT22;21725;50.836;4.368;2024-03-08T02:37:41;5.90;99.90
35603;DHT22;21725;50.836;4.368;2024-03-08T02:40:43;5.80;99.90
35603;DHT22;21725;50.836;4.368;2024-03-08T02:43:43;5.90;99.90
35603;DHT22;21725;50.836;4.368;2024-03-08T02:46:45;5.70;99.90
35603;DHT22;21725;50.836;4.368;2024-03-08T02:49:46;5.70;99.90
35603;DHT22;21725;50.836;4.368;2024-03-08T02:52:47;5.70;99.90
35603;DHT22;21725;50.836;4.368;2024-03-08T02:55:48;5.80;99.90
35603;DHT22;21725;50.836;4.368;2024-03-08T02:58:48;5.80;99.90
35603;DHT22;21725;50.836;4.368;2024-03-08T03:01:49;5.80;99.90
35603;DHT22;21725;50.836;4.368;2024-03-08T03:07:52;5.80;99.90
35603;DHT22;21725;50.836;4.368;2024-03-08T03:10:52;5.70;99.90
35603;DHT22;21725;50.836;4.368;2024-03-08T03:13:53;5.70;99.90
35603;DHT22;21725;50.836;4.368;2024-03-08T03:16:54;5.50;99.90
35603;DHT22;21725;50.836;4.368;2024-03-08T03:19:55;5.60;99.90
35603;DHT22;21725;50.836;4.368;2024-03-08T03:22:56;5.60;99.90
35603;DHT22;21725;50.836;4.368;2024-03-08T03:25:57;5.60;99.90
35603;DHT22;21725;50.836;4.368;2024-03-08T03:28:58;5.70;99.90
35603;DHT22;21725;50.836;4.368;2024-03-08T03:32:01;5.40;99.90
35603;DHT22;21725;50.836;4.368;2024-03-08T03:35:04;5.50;99.90
35603;DHT22;21725;50.836;4.368;2024-03-08T03:38:06;5.40;99.90
35603;DHT22;21725;50.836;4.368;2024-03-08T03:41:09;5.40;99.90
35603;DHT22;21725;50.836;4.368;2024-03-08T03:44:14;5.40;99.90
35603;DHT22;21725;50.836;4.368;2024-03-08T03:47:15;5.20;99.90
35603;DHT22;21725;50.836;4.368;2024-03-08T03:50:17;5.30;99.90
35603;DHT22;21725;50.836;4.368;2024-03-08T03:53:19;5.30;99.90
35603;DHT22;21725;50.836;4.368;2024-03-08T03:56:25;5.10;99.90
35603;DHT22;21725;50.836;4.368;2024-03-08T03:59:26;5.00;99.90
35603;DHT22;21725;50.836;4.368;2024-03-08T04:05:29;7.00;99.90
35603;DHT22;21725;50.836;4.368;2024-03-08T04:08:29;5.30;99.90
35603;DHT22;21725;50.836;4.368;2024-03-08T04:11:30;5.30;99.90
35603;DHT22;21725;50.836;4.368;2024-03-08T04:14:31;5.20;99.90
35603;DHT22;21725;50.836;4.368;2024-03-08T04:17:32;5.30;99.90
35603;DHT22;21725;50.836;4.368;2024-03-08T04:20:32;5.30;99.90
35603;DHT22;21725;50.836;4.368;2024-03-08T04:23:34;5.40;99.90
35603;DHT22;21725;50.836;4.368;2024-03-08T04:26:37;5.20;99.90
35603;DHT22;21725;50.836;4.368;2024-03-08T04:29:38;5.10;99.90
35603;DHT22;21725;50.836;4.368;2024-03-08T04:32:39;5.10;99.90
35603;DHT22;21725;50.836;4.368;2024-03-08T04:35:39;5.00;99.90
35603;DHT22;21725;50.836;4.368;2024-03-08T04:38:41;4.90;99.90
35603;DHT22;21725;50.836;4.368;2024-03-08T04:41:43;4.90;99.90
35603;DHT22;21725;50.836;4.368;2024-03-08T04:44:46;4.80;99.90
35603;DHT22;21725;50.836;4.368;2024-03-08T04:47:47;4.80;99.90
35603;DHT22;21725;50.836;4.368;2024-03-08T04:50:48;4.80;99.90
35603;DHT22;21725;50.836;4.368;2024-03-08T04:53:49;4.80;99.90
35603;DHT22;21725;50.836;4.368;2024-03-08T04:56:50;5.00;99.90
35603;DHT22;21725;50.836;4.368;2024-03-08T04:59:51;4.90;99.90
35603;DHT22;21725;50.836;4.368;2024-03-08T05:02:52;4.90;99.90
35603;DHT22;21725;50.836;4.368;2024-03-08T05:05:53;4.80;99.90
35603;DHT22;21725;50.836;4.368;2024-03-08T05:08:54;4.70;99.90
35603;DHT22;21725;50.836;4.368;2024-03-08T05:11:55;4.80;99.90
35603;DHT22;21725;50.836;4.368;2024-03-08T05:14:55;4.80;99.90
35603;DHT22;21725;50.836;4.368;2024-03-08T05:17:57;4.70;99.90
35603;DHT22;21725;50.836;4.368;2024-03-08T05:21:00;4.60;99.90
35603;DHT22;21725;50.836;4.368;2024-03-08T05:24:04;4.80;99.90
35603;DHT22;21725;50.836;4.368;2024-03-08T05:27:05;4.80;99.90
35603;DHT22;21725;50.836;4.368;2024-03-08T05:30:07;4.70;99.90
35603;DHT22;21725;50.836;4.368;2024-03-08T05:33:08;4.80;99.90
35603;DHT22;21725;50.836;4.368;2024-03-08T05:36:11;4.70;99.90
35603;DHT22;21725;50.836;4.368;2024-03-08T05:39:13;4.80;99.90
35603;DHT22;21725;50.836;4.368;2024-03-08T05:42:14;4.70;99.90
35603;DHT22;21725;50.836;4.368;2024-03-08T05:45:14;4.90;99.90
35603;DHT22;21725;50.836;4.368;2024-03-08T05:48:15;4.60;99.90
35603;DHT22;21725;50.836;4.368;2024-03-08T05:51:16;4.70;99.90
35603;DHT22;21725;50.836;4.368;2024-03-08T05:54:17;4.60;99.90
35603;DHT22;21725;50.836;4.368;2024-03-08T05:57:17;5.00;99.90
35603;DHT22;21725;50.836;4.368;2024-03-08T06:00:18;4.60;99.90
35603;DHT22;21725;50.836;4.368;2024-03-08T06:03:19;4.60;99.90
35603;DHT22;21725;50.836;4.368;2024-03-08T06:06:22;4.40;99.90
35603;DHT22;21725;50.836;4.368;2024-03-08T06:09:25;4.60;99.90
35603;DHT22;21725;50.836;4.368;2024-03-08T06:12:25;4.80;99.90
35603;DHT22;21725;50.836;4.368;2024-03-08T06:15:29;4.70;99.90
35603;DHT22;21725;50.836;4.368;2024-03-08T06:18:31;4.70;99.90
35603;DHT22;21725;50.836;4.368;2024-03-08T06:21:32;4.60;99.90
35603;DHT22;21725;50.836;4.368;2024-03-08T06:24:32;4.50;99.90
35603;DHT22;21725;50.836;4.368;2024-03-08T06:27:33;4.60;99.90
35603;DHT22;21725;50.836;4.368;2024-03-08T06:30:34;4.70;99.90
35603;DHT22;21725;50.836;4.368;2024-03-08T06:33:35;4.70;99.90
35603;DHT22;21725;50.836;4.368;2024-03-08T06:36:36;4.80;99.90
35603;DHT22;21725;50.836;4.368;2024-03-08T06:39:38;4.70;99.90
35603;DHT22;21725;50.836;4.368;2024-03-08T06:42:39;4.80;99.90
35603;DHT22;21725;50.836;4.368;2024-03-08T06:45:40;4.70;99.90
35603;DHT22;21725;50.836;4.368;2024-03-08T06:48:41;4.70;99.90
35603;DHT22;21725;50.836;4.368;2024-03-08T06:51:42;4.60;99.90
35603;DHT22;21725;50.836;4.368;2024-03-08T06:54:42;4.70;99.90
35603;DHT22;21725;50.836;4.368;2024-03-08T06:57:43;4.90;99.90
35603;DHT22;21725;50.836;4.368;2024-03-08T07:00:44;4.90;99.90
35603;DHT22;21725;50.836;4.368;2024-03-08T07:03:45;5.00;99.90
35603;DHT22;21725;50.836;4.368;2024-03-08T07:06:45;5.00;99.90
35603;DHT22;21725;50.836;4.368;2024-03-08T07:09:47;4.80;99.90
35603;DHT22;21725;50.836;4.368;2024-03-08T07:12:52;5.00;99.90
35603;DHT22;21725;50.836;4.368;2024-03-08T07:15:53;4.90;99.90
35603;DHT22;21725;50.836;4.368;2024-03-08T07:18:55;5.10;99.90
35603;DHT22;21725;50.836;4.368;2024-03-08T07:21:56;5.40;99.90
35603;DHT22;21725;50.836;4.368;2024-03-08T07:24:57;5.10;99.90
35603;DHT22;21725;50.836;4.368;2024-03-08T07:28:16;1.80;99.90
35603;DHT22;21725;50.836;4.368;2024-03-08T07:31:17;5.20;99.90
35603;DHT22;21725;50.836;4.368;2024-03-08T07:34:27;5.00;99.90
35603;DHT22;21725;50.836;4.368;2024-03-08T07:37:30;4.50;99.90
35603;DHT22;21725;50.836;4.368;2024-03-08T07:40:41;5.20;99.90
35603;DHT22;21725;50.836;4.368;2024-03-08T07:43:44;5.20;99.90
35603;DHT22;21725;50.836;4.368;2024-03-08T07:49:46;5.50;99.90
35603;DHT22;21725;50.836;4.368;2024-03-08T07:52:47;5.50;99.90
35603;DHT22;21725;50.836;4.368;2024-03-08T07:55:48;5.70;99.90
35603;DHT22;21725;50.836;4.368;2024-03-08T07:58:49;5.70;99.90
35603;DHT22;21725;50.836;4.368;2024-03-08T08:01:50;5.80;99.90
35603;DHT22;21725;50.836;4.368;2024-03-08T08:04:51;5.80;99.90
35603;DHT22;21725;50.836;4.368;2024-03-08T08:07:51;5.80;99.90
35603;DHT22;21725;50.836;4.368;2024-03-08T08:10:53;5.90;99.90
35603;DHT22;21725;50.836;4.368;2024-03-08T08:16:55;5.90;99.90
35603;DHT22;21725;50.836;4.368;2024-03-08T08:19:57;6.10;99.90
35603;DHT22;21725;50.836;4.368;2024-03-08T08:22:58;6.20;99.90
35603;DHT22;21725;50.836;4.368;2024-03-08T08:26:02;7.30;99.90
35603;DHT22;21725;50.836;4.368;2024-03-08T08:29:05;6.40;99.90
35603;DHT22;21725;50.836;4.368;2024-03-08T08:32:06;6.20;99.90
35603;DHT22;21725;50.836;4.368;2024-03-08T08:35:07;6.40;99.90
35603;DHT22;21725;50.836;4.368;2024-03-08T08:38:09;6.40;99.90
35603;DHT22;21725;50.836;4.368;2024-03-08T08:41:10;6.70;99.90
35603;DHT22;21725;50.836;4.368;2024-03-08T08:44:11;6.70;99.90
35603;DHT22;21725;50.836;4.368;2024-03-08T08:47:12;7.00;99.90
35603;DHT22;21725;50.836;4.368;2024-03-08T08:50:13;7.10;99.90
35603;DHT22;21725;50.836;4.368;2024-03-08T08:53:14;7.00;99.90
35603;DHT22;21725;50.836;4.368;2024-03-08T08:56:15;6.70;99.90
35603;DHT22;21725;50.836;4.368;2024-03-08T08:59:16;6.70;99.90
35603;DHT22;21725;50.836;4.368;2024-03-08T09:02:19;6.90;99.90
35603;DHT22;21725;50.836;4.368;2024-03-08T09:05:21;7.00;99.90
35603;DHT22;21725;50.836;4.368;2024-03-08T09:08:24;7.20;99.90
35603;DHT22;21725;50.836;4.368;2024-03-08T09:11:25;7.10;99.90
35603;DHT22;21725;50.836;4.368;2024-03-08T09:14:26;6.90;99.90
35603;DHT22;21725;50.836;4.368;2024-03-08T09:17:26;7.00;99.90
35603;DHT22;21725;50.836;4.368;2024-03-08T09:20:30;7.10;99.90
35603;DHT22;21725;50.836;4.368;2024-03-08T09:23:32;6.10;99.90
35603;DHT22;21725;50.836;4.368;2024-03-08T09:26:33;7.60;99.90
35603;DHT22;21725;50.836;4.368;2024-03-08T09:29:33;7.70;99.90
35603;DHT22;21725;50.836;4.368;2024-03-08T09:32:34;7.50;99.90
35603;DHT22;21725;50.836;4.368;2024-03-08T09:35:35;7.40;99.90
35603;DHT22;21725;50.836;4.368;2024-03-08T09:38:36;7.60;99.90
35603;DHT22;21725;50.836;4.368;2024-03-08T09:41:36;7.60;99.90
35603;DHT22;21725;50.836;4.368;2024-03-08T09:44:43;7.80;99.90
35603;DHT22;21725;50.836;4.368;2024-03-08T09:47:45;8.20;99.90
35603;DHT22;21725;50.836;4.368;2024-03-08T09:50:46;8.60;99.90
35603;DHT22;21725;50.836;4.368;2024-03-08T09:53:47;8.80;99.90
35603;DHT22;21725;50.836;4.368;2024-03-08T09:56:48;9.00;99.90
35603;DHT22;21725;50.836;4.368;2024-03-08T09:59:51;9.10;99.70
35603;DHT22;21725;50.836;4.368;2024-03-08T10:02:52;9.20;99.60
35603;DHT22;21725;50.836;4.368;2024-03-08T10:05:54;9.40;99.40
35603;DHT22;21725;50.836;4.368;2024-03-08T10:08:57;9.50;98.90
35603;DHT22;21725;50.836;4.368;2024-03-08T10:11:57;9.70;99.20
35603;DHT22;21725;50.836;4.368;2024-03-08T10:15:02;9.60;98.60
35603;DHT22;21725;50.836;4.368;2024-03-08T10:18:03;9.40;98.70
35603;DHT22;21725;50.836;4.368;2024-03-08T10:21:04;9.30;99.30
35603;DHT22;21725;50.836;4.368;2024-03-08T10:24:05;9.50;98.90
35603;DHT22;21725;50.836;4.368;2024-03-08T10:27:10;9.80;98.40
35603;DHT22;21725;50.836;4.368;2024-03-08T10:30:14;10.20;98.10
35603;DHT22;21725;50.836;4.368;2024-03-08T10:33:16;10.50;97.30
35603;DHT22;21725;50.836;4.368;2024-03-08T10:36:17;10.50;97.60
35603;DHT22;21725;50.836;4.368;2024-03-08T10:39:24;10.30;97.20
35603;DHT22;21725;50.836;4.368;2024-03-08T10:42:29;9.80;97.70
35603;DHT22;21725;50.836;4.368;2024-03-08T10:45:35;9.80;97.90
35603;DHT22;21725;50.836;4.368;2024-03-08T10:48:45;9.80;98.20
35603;DHT22;21725;50.836;4.368;2024-03-08T10:51:50;9.90;98.10
35603;DHT22;21725;50.836;4.368;2024-03-08T10:54:52;10.10;98.20
35603;DHT22;21725;50.836;4.368;2024-03-08T10:57:55;10.40;97.30
35603;DHT22;21725;50.836;4.368;2024-03-08T11:00:56;10.40;97.50
35603;DHT22;21725;50.836;4.368;2024-03-08T11:03:57;10.30;97.50
35603;DHT22;21725;50.836;4.368;2024-03-08T11:07:02;10.20;98.00
35603;DHT22;21725;50.836;4.368;2024-03-08T11:10:18;10.50;97.60
35603;DHT22;21725;50.836;4.368;2024-03-08T11:13:48;10.90;97.20
35603;DHT22;21725;50.836;4.368;2024-03-08T11:16:49;11.20;96.90
35603;DHT22;21725;50.836;4.368;2024-03-08T11:19:50;11.50;96.40
35603;DHT22;21725;50.836;4.368;2024-03-08T11:23:00;11.40;96.80
35603;DHT22;21725;50.836;4.368;2024-03-08T11:26:04;11.30;96.70
35603;DHT22;21725;50.836;4.368;2024-03-08T11:32:30;11.30;96.70
35603;DHT22;21725;50.836;4.368;2024-03-08T11:35:33;11.20;96.60
35603;DHT22;21725;50.836;4.368;2024-03-08T11:38:40;11.40;96.60
35603;DHT22;21725;50.836;4.368;2024-03-08T11:41:43;11.70;95.90
35603;DHT22;21725;50.836;4.368;2024-03-08T11:44:46;11.80;96.10
35603;DHT22;21725;50.836;4.368;2024-03-08T11:47:48;11.10;96.20
35603;DHT22;21725;50.836;4.368;2024-03-08T11:51:01;10.90;97.30
35603;DHT22;21725;50.836;4.368;2024-03-08T11:54:02;11.90;97.00
35603;DHT22;21725;50.836;4.368;2024-03-08T11:57:03;11.30;96.80
35603;DHT22;21725;50.836;4.368;2024-03-08T12:00:05;11.50;96.30
35603;DHT22;21725;50.836;4.368;2024-03-08T12:03:08;11.10;95.50
35603;DHT22;21725;50.836;4.368;2024-03-08T12:06:12;11.80;95.60
35603;DHT22;21725;50.836;4.368;2024-03-08T12:09:13;11.70;96.20
35603;DHT22;21725;50.836;4.368;2024-03-08T12:12:16;12.00;95.40
35603;DHT22;21725;50.836;4.368;2024-03-08T12:15:18;12.20;95.40
35603;DHT22;21725;50.836;4.368;2024-03-08T12:18:19;12.20;94.80
35603;DHT22;21725;50.836;4.368;2024-03-08T12:21:20;11.80;95.50
35603;DHT22;21725;50.836;4.368;2024-03-08T12:24:22;11.60;95.90
35603;DHT22;21725;50.836;4.368;2024-03-08T12:27:26;11.70;96.00
35603;DHT22;21725;50.836;4.368;2024-03-08T12:30:31;11.50;96.40
35603;DHT22;21725;50.836;4.368;2024-03-08T12:33:34;11.70;96.30
35603;DHT22;21725;50.836;4.368;2024-03-08T12:36:35;11.40;96.70
35603;DHT22;21725;50.836;4.368;2024-03-08T12:39:40;11.60;96.20
35603;DHT22;21725;50.836;4.368;2024-03-08T12:42:41;11.70;96.10
35603;DHT22;21725;50.836;4.368;2024-03-08T12:45:42;11.80;96.20
35603;DHT22;21725;50.836;4.368;2024-03-08T12:48:43;11.80;95.80
35603;DHT22;21725;50.836;4.368;2024-03-08T12:51:47;11.90;95.50
35603;DHT22;21725;50.836;4.368;2024-03-08T12:54:48;11.70;95.70
35603;DHT22;21725;50.836;4.368;2024-03-08T12:57:49;11.90;96.10
35603;DHT22;21725;50.836;4.368;2024-03-08T13:00:50;12.10;95.80
35603;DHT22;21725;50.836;4.368;2024-03-08T13:03:51;12.60;95.20
35603;DHT22;21725;50.836;4.368;2024-03-08T13:06:53;12.70;94.90
35603;DHT22;21725;50.836;4.368;2024-03-08T13:09:55;12.70;95.00
35603;DHT22;21725;50.836;4.368;2024-03-08T13:12:57;12.90;94.70
35603;DHT22;21725;50.836;4.368;2024-03-08T13:16:01;12.70;95.20
35603;DHT22;21725;50.836;4.368;2024-03-08T13:19:02;14.50;95.00
35603;DHT22;21725;50.836;4.368;2024-03-08T13:22:03;12.50;95.00
35603;DHT22;21725;50.836;4.368;2024-03-08T13:25:08;12.40;95.10
35603;DHT22;21725;50.836;4.368;2024-03-08T13:28:13;12.50;95.00
35603;DHT22;21725;50.836;4.368;2024-03-08T13:31:14;12.50;95.30
35603;DHT22;21725;50.836;4.368;2024-03-08T13:34:15;12.30;95.30
35603;DHT22;21725;50.836;4.368;2024-03-08T13:37:17;12.40;95.50
35603;DHT22;21725;50.836;4.368;2024-03-08T13:40:18;12.60;94.70
35603;DHT22;21725;50.836;4.368;2024-03-08T13:43:20;10.00;93.70
35603;DHT22;21725;50.836;4.368;2024-03-08T13:46:21;13.10;94.50
35603;DHT22;21725;50.836;4.368;2024-03-08T13:49:21;13.20;94.30
35603;DHT22;21725;50.836;4.368;2024-03-08T13:52:22;13.00;94.50
35603;DHT22;21725;50.836;4.368;2024-03-08T13:55:25;12.80;94.40
35603;DHT22;21725;50.836;4.368;2024-03-08T13:58:30;13.00;94.30
35603;DHT22;21725;50.836;4.368;2024-03-08T14:01:30;13.20;94.00
35603;DHT22;21725;50.836;4.368;2024-03-08T14:04:31;13.30;94.20
35603;DHT22;21725;50.836;4.368;2024-03-08T14:07:32;13.40;94.00
35603;DHT22;21725;50.836;4.368;2024-03-08T14:10:34;13.10;93.80
35603;DHT22;21725;50.836;4.368;2024-03-08T14:13:42;13.10;93.90
35603;DHT22;21725;50.836;4.368;2024-03-08T14:16:45;13.20;94.00
35603;DHT22;21725;50.836;4.368;2024-03-08T14:19:45;13.50;93.80
35603;DHT22;21725;50.836;4.368;2024-03-08T14:22:46;13.60;93.70
35603;DHT22;21725;50.836;4.368;2024-03-08T14:25:49;13.50;93.90
35603;DHT22;21725;50.836;4.368;2024-03-08T14:28:52;13.50;93.70
35603;DHT22;21725;50.836;4.368;2024-03-08T14:31:55;13.50;94.00
35603;DHT22;21725;50.836;4.368;2024-03-08T14:34:59;13.50;93.60
35603;DHT22;21725;50.836;4.368;2024-03-08T14:38:00;13.50;93.40
35603;DHT22;21725;50.836;4.368;2024-03-08T14:41:01;13.60;93.70
35603;DHT22;21725;50.836;4.368;2024-03-08T14:44:04;13.60;93.60
35603;DHT22;21725;50.836;4.368;2024-03-08T14:47:05;13.50;93.40
35603;DHT22;21725;50.836;4.368;2024-03-08T14:50:07;13.50;93.90
35603;DHT22;21725;50.836;4.368;2024-03-08T14:53:08;13.70;93.40
35603;DHT22;21725;50.836;4.368;2024-03-08T14:56:09;13.70;93.60
35603;DHT22;21725;50.836;4.368;2024-03-08T14:59:10;13.60;93.60
35603;DHT22;21725;50.836;4.368;2024-03-08T15:02:11;13.90;93.40
35603;DHT22;21725;50.836;4.368;2024-03-08T15:05:13;13.70;93.40
35603;DHT22;21725;50.836;4.368;2024-03-08T15:08:14;13.60;93.30
35603;DHT22;21725;50.836;4.368;2024-03-08T15:11:20;13.50;93.10
35603;DHT22;21725;50.836;4.368;2024-03-08T15:14:25;13.50;93.20
35603;DHT22;21725;50.836;4.368;2024-03-08T15:17:29;13.50;93.60
35603;DHT22;21725;50.836;4.368;2024-03-08T15:20:30;13.60;93.40
35603;DHT22;21725;50.836;4.368;2024-03-08T15:23:35;13.30;93.60
35603;DHT22;21725;50.836;4.368;2024-03-08T15:26:36;13.10;93.90
35603;DHT22;21725;50.836;4.368;2024-03-08T15:29:37;13.20;94.00
35603;DHT22;21725;50.836;4.368;2024-03-08T15:32:38;13.40;93.70
35603;DHT22;21725;50.836;4.368;2024-03-08T15:35:38;13.50;93.70
35603;DHT22;21725;50.836;4.368;2024-03-08T15:38:40;13.50;93.70
35603;DHT22;21725;50.836;4.368;2024-03-08T15:41:41;13.60;93.80
35603;DHT22;21725;50.836;4.368;2024-03-08T15:44:44;13.50;93.50
35603;DHT22;21725;50.836;4.368;2024-03-08T15:47:45;13.30;94.00
35603;DHT22;21725;50.836;4.368;2024-03-08T15:50:46;12.90;93.90
35603;DHT22;21725;50.836;4.368;2024-03-08T15:53:47;13.30;94.00
35603;DHT22;21725;50.836;4.368;2024-03-08T15:56:53;13.40;94.00
35603;DHT22;21725;50.836;4.368;2024-03-08T15:59:54;13.50;93.80
35603;DHT22;21725;50.836;4.368;2024-03-08T16:03:03;13.60;93.90
35603;DHT22;21725;50.836;4.368;2024-03-08T16:06:07;13.50;93.50
35603;DHT22;21725;50.836;4.368;2024-03-08T16:09:08;13.40;94.00
35603;DHT22;21725;50.836;4.368;2024-03-08T16:12:15;13.40;94.20
35603;DHT22;21725;50.836;4.368;2024-03-08T16:15:16;13.40;93.80
35603;DHT22;21725;50.836;4.368;2024-03-08T16:18:18;13.30;94.10
35603;DHT22;21725;50.836;4.368;2024-03-08T16:21:27;13.50;93.60
35603;DHT22;21725;50.836;4.368;2024-03-08T16:24:31;12.20;93.70
35603;DHT22;21725;50.836;4.368;2024-03-08T16:27:33;13.30;93.80
35603;DHT22;21725;50.836;4.368;2024-03-08T16:30:34;13.40;94.20
35603;DHT22;21725;50.836;4.368;2024-03-08T16:33:35;13.20;94.30
35603;DHT22;21725;50.836;4.368;2024-03-08T16:36:36;13.20;94.10
35603;DHT22;21725;50.836;4.368;2024-03-08T16:39:40;13.10;94.20
35603;DHT22;21725;50.836;4.368;2024-03-08T16:42:48;13.00;94.00
35603;DHT22;21725;50.836;4.368;2024-03-08T16:45:52;12.90;93.90
35603;DHT22;21725;50.836;4.368;2024-03-08T16:48:53;12.80;94.30
35603;DHT22;21725;50.836;4.368;2024-03-08T16:51:54;12.80;94.20
35603;DHT22;21725;50.836;4.368;2024-03-08T16:54:57;12.80;94.30
35603;DHT22;21725;50.836;4.368;2024-03-08T16:57:58;12.70;94.40
35603;DHT22;21725;50.836;4.368;2024-03-08T17:00:59;11.60;94.40
35603;DHT22;21725;50.836;4.368;2024-03-08T17:04:00;12.50;95.00
35603;DHT22;21725;50.836;4.368;2024-03-08T17:07:03;12.40;94.80
35603;DHT22;21725;50.836;4.368;2024-03-08T17:10:06;12.50;94.60
35603;DHT22;21725;50.836;4.368;2024-03-08T17:13:15;12.50;95.00
35603;DHT22;21725;50.836;4.368;2024-03-08T17:16:18;12.60;94.70
35603;DHT22;21725;50.836;4.368;2024-03-08T17:19:25;12.60;94.60
35603;DHT22;21725;50.836;4.368;2024-03-08T17:22:26;12.40;94.70
35603;DHT22;21725;50.836;4.368;2024-03-08T17:25:29;12.40;94.80
35603;DHT22;21725;50.836;4.368;2024-03-08T17:28:30;12.30;94.70
35603;DHT22;21725;50.836;4.368;2024-03-08T17:31:31;12.20;94.70
35603;DHT22;21725;50.836;4.368;2024-03-08T17:34:33;12.10;94.70
35603;DHT22;21725;50.836;4.368;2024-03-08T17:37:36;12.10;95.00
35603;DHT22;21725;50.836;4.368;2024-03-08T17:40:39;12.20;94.80
35603;DHT22;21725;50.836;4.368;2024-03-08T17:43:41;12.20;94.40
35603;DHT22;21725;50.836;4.368;2024-03-08T17:46:42;12.10;94.70
35603;DHT22;21725;50.836;4.368;2024-03-08T17:49:43;12.10;94.70
35603;DHT22;21725;50.836;4.368;2024-03-08T17:52:46;12.00;94.60
35603;DHT22;21725;50.836;4.368;2024-03-08T17:55:47;12.00;94.60
35603;DHT22;21725;50.836;4.368;2024-03-08T17:58:50;12.00;94.90
35603;DHT22;21725;50.836;4.368;2024-03-08T18:01:51;12.00;95.00
35603;DHT22;21725;50.836;4.368;2024-03-08T18:04:52;12.00;95.10
35603;DHT22;21725;50.836;4.368;2024-03-08T18:07:53;11.80;95.10
35603;DHT22;21725;50.836;4.368;2024-03-08T18:10:54;11.90;94.80
35603;DHT22;21725;50.836;4.368;2024-03-08T18:13:55;11.70;95.40
35603;DHT22;21725;50.836;4.368;2024-03-08T18:16:56;11.60;95.00
35603;DHT22;21725;50.836;4.368;2024-03-08T18:19:57;11.60;95.30
35603;DHT22;21725;50.836;4.368;2024-03-08T18:23:03;11.50;95.30
35603;DHT22;21725;50.836;4.368;2024-03-08T18:26:04;11.50;95.10
35603;DHT22;21725;50.836;4.368;2024-03-08T18:29:05;11.50;95.60
35603;DHT22;21725;50.836;4.368;2024-03-08T18:32:09;11.30;95.90
35603;DHT22;21725;50.836;4.368;2024-03-08T18:35:11;11.20;96.00
35603;DHT22;21725;50.836;4.368;2024-03-08T18:38:12;11.10;96.20
35603;DHT22;21725;50.836;4.368;2024-03-08T18:41:13;11.20;96.00
35603;DHT22;21725;50.836;4.368;2024-03-08T18:44:14;11.10;96.10
35603;DHT22;21725;50.836;4.368;2024-03-08T18:47:16;11.10;96.40
35603;DHT22;21725;50.836;4.368;2024-03-08T18:50:18;11.30;96.20
35603;DHT22;21725;50.836;4.368;2024-03-08T18:53:20;13.90;96.60
35603;DHT22;21725;50.836;4.368;2024-03-08T18:56:21;11.10;96.30
35603;DHT22;21725;50.836;4.368;2024-03-08T18:59:22;11.00;96.60
35603;DHT22;21725;50.836;4.368;2024-03-08T19:02:22;10.90;96.70
35603;DHT22;21725;50.836;4.368;2024-03-08T19:05:24;10.80;96.80
35603;DHT22;21725;50.836;4.368;2024-03-08T19:08:25;10.80;96.60
35603;DHT22;21725;50.836;4.368;2024-03-08T19:11:26;10.90;96.70
35603;DHT22;21725;50.836;4.368;2024-03-08T19:14:28;11.00;96.50
35603;DHT22;21725;50.836;4.368;2024-03-08T19:17:29;11.00;96.40
35603;DHT22;21725;50.836;4.368;2024-03-08T19:20:30;11.00;96.50
35603;DHT22;21725;50.836;4.368;2024-03-08T19:23:34;11.00;96.70
35603;DHT22;21725;50.836;4.368;2024-03-08T19:26:35;11.20;96.60
35603;DHT22;21725;50.836;4.368;2024-03-08T19:29:36;11.00;96.80
35603;DHT22;21725;50.836;4.368;2024-03-08T19:32:37;11.00;96.80
35603;DHT22;21725;50.836;4.368;2024-03-08T19:35:39;11.00;96.80
35603;DHT22;21725;50.836;4.368;2024-03-08T19:38:40;11.10;96.60
35603;DHT22;21725;50.836;4.368;2024-03-08T19:41:41;11.20;96.80
35603;DHT22;21725;50.836;4.368;2024-03-08T19:44:43;10.40;96.40